sensor_id;sensor_type;location;lat;lon;timestamp;temperature;humidity
49413;DHT22;35493;50.276;9.372;2023-02-01T00:00:59;5.30;90.40
49413;DHT22;35493;50.276;9.372;2023-02-01T00:03:26;5.30;90.40
49413;DHT22;35493;50.276;9.372;2023-02-01T00:05:58;5.30;90.40
49413;DHT22;35493;50.276;9.372;2023-02-01T00:08:26;5.30;90.30
49413;DHT22;35493;50.276;9.372;2023-02-01T00:11:00;5.30;90.10
49413;DHT22;35493;50.276;9.372;2023-02-01T00:13:28;5.30;89.90
49413;DHT22;35493;50.276;9.372;2023-02-01T00:16:03;5.30;90.00
49413;DHT22;35493;50.276;9.372;2023-02-01T00:18:36;5.30;90.10
49413;DHT22;35493;50.276;9.372;2023-02-01T00:21:05;5.30;90.10
49413;DHT22;35493;50.276;9.372;2023-02-01T00:23:32;5.30;90.30
49413;DHT22;35493;50.276;9.372;2023-02-01T00:26:00;5.30;90.10
49413;DHT22;35493;50.276;9.372;2023-02-01T00:28:31;5.30;90.10
49413;DHT22;35493;50.276;9.372;2023-02-01T00:30:59;5.30;90.00
49413;DHT22;35493;50.276;9.372;2023-02-01T00:33:26;5.30;90.20
49413;DHT22;35493;50.276;9.372;2023-02-01T00:35:56;5.30;90.30
49413;DHT22;35493;50.276;9.372;2023-02-01T00:38:25;5.30;90.20
49413;DHT22;35493;50.276;9.372;2023-02-01T00:40:52;5.30;90.30
49413;DHT22;35493;50.276;9.372;2023-02-01T00:43:19;5.30;90.10
49413;DHT22;35493;50.276;9.372;2023-02-01T00:45:46;5.30;90.20
49413;DHT22;35493;50.276;9.372;2023-02-01T00:48:13;5.30;90.30
49413;DHT22;35493;50.276;9.372;2023-02-01T00:50:41;5.30;90.10
49413;DHT22;35493;50.276;9.372;2023-02-01T00:53:08;5.30;90.20
49413;DHT22;35493;50.276;9.372;2023-02-01T00:55:38;5.30;90.10
49413;DHT22;35493;50.276;9.372;2023-02-01T00:58:05;5.30;90.30
49413;DHT22;35493;50.276;9.372;2023-02-01T01:00:35;5.30;90.20
49413;DHT22;35493;50.276;9.372;2023-02-01T01:03:02;5.30;90.20
49413;DHT22;35493;50.276;9.372;2023-02-01T01:05:43;5.30;90.20
49413;DHT22;35493;50.276;9.372;2023-02-01T01:08:09;5.30;90.10
49413;DHT22;35493;50.276;9.372;2023-02-01T01:10:38;5.30;90.10
49413;DHT22;35493;50.276;9.372;2023-02-01T01:13:12;5.30;90.10
49413;DHT22;35493;50.276;9.372;2023-02-01T01:15:39;5.30;90.20
49413;DHT22;35493;50.276;9.372;2023-02-01T01:18:07;5.30;90.00
49413;DHT22;35493;50.276;9.372;2023-02-01T01:20:36;5.30;90.20
49413;DHT22;35493;50.276;9.372;2023-02-01T01:23:07;5.30;89.90
49413;DHT22;35493;50.276;9.372;2023-02-01T01:25:39;5.30;89.90
49413;DHT22;35493;50.276;9.372;2023-02-01T01:28:06;5.40;89.80
49413;DHT22;35493;50.276;9.372;2023-02-01T01:30:34;5.40;89.90
49413;DHT22;35493;50.276;9.372;2023-02-01T01:33:05;5.40;89.90
49413;DHT22;35493;50.276;9.372;2023-02-01T01:35:32;5.40;90.10
49413;DHT22;35493;50.276;9.372;2023-02-01T01:38:00;5.40;89.90
49413;DHT22;35493;50.276;9.372;2023-02-01T01:40:28;5.40;90.10
49413;DHT22;35493;50.276;9.372;2023-02-01T01:43:01;5.30;90.10
49413;DHT22;35493;50.276;9.372;2023-02-01T01:45:29;5.30;89.90
49413;DHT22;35493;50.276;9.372;2023-02-01T01:47:58;5.30;89.90
49413;DHT22;35493;50.276;9.372;2023-02-01T01:50:30;5.40;90.10
49413;DHT22;35493;50.276;9.372;2023-02-01T01:53:01;5.30;90.00
49413;DHT22;35493;50.276;9.372;2023-02-01T01:55:32;5.40;89.90
49413;DHT22;35493;50.276;9.372;2023-02-01T01:58:02;5.30;90.00
49413;DHT22;35493;50.276;9.372;2023-02-01T02:00:31;5.40;89.90
49413;DHT22;35493;50.276;9.372;2023-02-01T02:03:02;5.30;89.80
49413;DHT22;35493;50.276;9.372;2023-02-01T02:05:30;5.40;89.70
49413;DHT22;35493;50.276;9.372;2023-02-01T02:07:59;5.40;89.70
49413;DHT22;35493;50.276;9.372;2023-02-01T02:10:27;5.40;89.70
49413;DHT22;35493;50.276;9.372;2023-02-01T02:13:10;5.40;89.90
49413;DHT22;35493;50.276;9.372;2023-02-01T02:15:42;5.40;89.80
49413;DHT22;35493;50.276;9.372;2023-02-01T02:18:15;5.40;90.00
49413;DHT22;35493;50.276;9.372;2023-02-01T02:20:53;5.40;89.70
49413;DHT22;35493;50.276;9.372;2023-02-01T02:26:44;5.40;89.90
49413;DHT22;35493;50.276;9.372;2023-02-01T02:29:48;5.40;89.70
49413;DHT22;35493;50.276;9.372;2023-02-01T02:32:43;5.40;89.90
49413;DHT22;35493;50.276;9.372;2023-02-01T02:35:21;5.40;89.90
49413;DHT22;35493;50.276;9.372;2023-02-01T02:37:54;5.40;89.80
49413;DHT22;35493;50.276;9.372;2023-02-01T02:40:31;5.40;89.90
49413;DHT22;35493;50.276;9.372;2023-02-01T02:43:04;5.40;89.90
49413;DHT22;35493;50.276;9.372;2023-02-01T02:45:55;5.40;89.80
49413;DHT22;35493;50.276;9.372;2023-02-01T02:48:47;5.40;89.80
49413;DHT22;35493;50.276;9.372;2023-02-01T02:51:23;5.40;90.00
49413;DHT22;35493;50.276;9.372;2023-02-01T02:54:12;5.40;89.80
49413;DHT22;35493;50.276;9.372;2023-02-01T02:56:58;5.40;89.80
49413;DHT22;35493;50.276;9.372;2023-02-01T02:59:44;5.40;89.90
49413;DHT22;35493;50.276;9.372;2023-02-01T03:02:32;5.30;89.90
49413;DHT22;35493;50.276;9.372;2023-02-01T03:05:17;5.40;90.00
49413;DHT22;35493;50.276;9.372;2023-02-01T03:07:55;5.40;89.90
49413;DHT22;35493;50.276;9.372;2023-02-01T03:10:30;5.40;89.90
49413;DHT22;35493;50.276;9.372;2023-02-01T03:13:06;5.40;89.80
49413;DHT22;35493;50.276;9.372;2023-02-01T03:15:36;5.40;89.90
49413;DHT22;35493;50.276;9.372;2023-02-01T03:18:12;5.40;89.70
49413;DHT22;35493;50.276;9.372;2023-02-01T03:20:41;5.40;90.00
49413;DHT22;35493;50.276;9.372;2023-02-01T03:23:13;5.40;90.00
49413;DHT22;35493;50.276;9.372;2023-02-01T03:25:41;5.40;90.00
49413;DHT22;35493;50.276;9.372;2023-02-01T03:28:10;5.40;89.90
49413;DHT22;35493;50.276;9.372;2023-02-01T03:30:40;5.40;89.90
49413;DHT22;35493;50.276;9.372;2023-02-01T03:33:12;5.40;89.90
49413;DHT22;35493;50.276;9.372;2023-02-01T03:35:55;5.40;89.90
49413;DHT22;35493;50.276;9.372;2023-02-01T03:38:30;5.40;90.00
49413;DHT22;35493;50.276;9.372;2023-02-01T03:41:05;5.40;90.00
49413;DHT22;35493;50.276;9.372;2023-02-01T03:43:39;5.40;89.90
49413;DHT22;35493;50.276;9.372;2023-02-01T03:46:12;5.40;90.00
49413;DHT22;35493;50.276;9.372;2023-02-01T03:48:44;5.40;90.00
49413;DHT22;35493;50.276;9.372;2023-02-01T03:51:12;5.40;89.80
49413;DHT22;35493;50.276;9.372;2023-02-01T03:53:42;5.40;89.80
49413;DHT22;35493;50.276;9.372;2023-02-01T03:56:12;5.40;89.90
49413;DHT22;35493;50.276;9.372;2023-02-01T03:58:39;5.40;89.80
49413;DHT22;35493;50.276;9.372;2023-02-01T04:01:06;5.40;89.90
49413;DHT22;35493;50.276;9.372;2023-02-01T04:03:39;5.40;89.80
49413;DHT22;35493;50.276;9.372;2023-02-01T04:06:06;5.40;89.70
49413;DHT22;35493;50.276;9.372;2023-02-01T04:08:33;5.40;89.80
49413;DHT22;35493;50.276;9.372;2023-02-01T04:11:01;5.40;89.70
49413;DHT22;35493;50.276;9.372;2023-02-01T04:13:34;5.40;89.80
49413;DHT22;35493;50.276;9.372;2023-02-01T04:16:01;5.40;89.70
49413;DHT22;35493;50.276;9.372;2023-02-01T04:18:28;5.40;89.60
49413;DHT22;35493;50.276;9.372;2023-02-01T04:20:54;5.40;89.60
49413;DHT22;35493;50.276;9.372;2023-02-01T04:23:21;5.40;89.50
49413;DHT22;35493;50.276;9.372;2023-02-01T04:25:48;5.40;89.60
49413;DHT22;35493;50.276;9.372;2023-02-01T04:28:18;5.40;89.60
49413;DHT22;35493;50.276;9.372;2023-02-01T04:30:45;5.40;89.50
49413;DHT22;35493;50.276;9.372;2023-02-01T04:33:13;5.40;89.70
49413;DHT22;35493;50.276;9.372;2023-02-01T04:35:40;5.40;89.50
49413;DHT22;35493;50.276;9.372;2023-02-01T04:38:06;5.40;89.50
49413;DHT22;35493;50.276;9.372;2023-02-01T04:40:35;5.40;89.50
49413;DHT22;35493;50.276;9.372;2023-02-01T04:43:03;5.40;89.60
49413;DHT22;35493;50.276;9.372;2023-02-01T04:45:31;5.40;89.50
49413;DHT22;35493;50.276;9.372;2023-02-01T04:47:58;5.40;89.50
49413;DHT22;35493;50.276;9.372;2023-02-01T04:50:24;5.40;89.60
49413;DHT22;35493;50.276;9.372;2023-02-01T04:52:51;5.40;89.50
49413;DHT22;35493;50.276;9.372;2023-02-01T04:55:18;5.40;89.50
49413;DHT22;35493;50.276;9.372;2023-02-01T04:57:45;5.40;89.50
49413;DHT22;35493;50.276;9.372;2023-02-01T05:00:12;5.40;89.20
49413;DHT22;35493;50.276;9.372;2023-02-01T05:02:41;5.40;89.30
49413;DHT22;35493;50.276;9.372;2023-02-01T05:05:08;5.40;89.30
49413;DHT22;35493;50.276;9.372;2023-02-01T05:07:35;5.40;89.30
49413;DHT22;35493;50.276;9.372;2023-02-01T05:10:02;5.40;89.40
49413;DHT22;35493;50.276;9.372;2023-02-01T05:12:33;5.40;89.30
49413;DHT22;35493;50.276;9.372;2023-02-01T05:15:26;5.40;89.30
49413;DHT22;35493;50.276;9.372;2023-02-01T05:17:55;5.40;89.30
49413;DHT22;35493;50.276;9.372;2023-02-01T05:20:21;5.40;89.20
49413;DHT22;35493;50.276;9.372;2023-02-01T05:22:53;5.40;89.20
49413;DHT22;35493;50.276;9.372;2023-02-01T05:25:20;5.40;89.10
49413;DHT22;35493;50.276;9.372;2023-02-01T05:27:46;5.40;89.10
49413;DHT22;35493;50.276;9.372;2023-02-01T05:30:14;5.40;89.00
49413;DHT22;35493;50.276;9.372;2023-02-01T05:32:41;5.40;89.00
49413;DHT22;35493;50.276;9.372;2023-02-01T05:35:09;5.40;89.00
49413;DHT22;35493;50.276;9.372;2023-02-01T05:37:36;5.40;88.90
49413;DHT22;35493;50.276;9.372;2023-02-01T05:40:04;5.40;89.00
49413;DHT22;35493;50.276;9.372;2023-02-01T05:42:30;5.40;88.90
49413;DHT22;35493;50.276;9.372;2023-02-01T05:44:57;5.40;88.90
49413;DHT22;35493;50.276;9.372;2023-02-01T05:47:24;5.40;88.90
49413;DHT22;35493;50.276;9.372;2023-02-01T05:49:51;5.40;88.90
49413;DHT22;35493;50.276;9.372;2023-02-01T05:52:19;5.40;88.80
49413;DHT22;35493;50.276;9.372;2023-02-01T05:54:46;5.40;88.80
49413;DHT22;35493;50.276;9.372;2023-02-01T05:57:13;5.40;88.80
49413;DHT22;35493;50.276;9.372;2023-02-01T05:59:44;5.40;88.80
49413;DHT22;35493;50.276;9.372;2023-02-01T06:02:11;5.40;88.80
49413;DHT22;35493;50.276;9.372;2023-02-01T06:04:38;5.40;88.80
49413;DHT22;35493;50.276;9.372;2023-02-01T06:07:05;5.40;88.80
49413;DHT22;35493;50.276;9.372;2023-02-01T06:09:34;5.40;88.80
49413;DHT22;35493;50.276;9.372;2023-02-01T06:12:03;5.40;88.90
49413;DHT22;35493;50.276;9.372;2023-02-01T06:14:30;5.40;88.90
49413;DHT22;35493;50.276;9.372;2023-02-01T06:16:56;5.40;89.00
49413;DHT22;35493;50.276;9.372;2023-02-01T06:19:24;5.40;89.00
49413;DHT22;35493;50.276;9.372;2023-02-01T06:21:50;5.40;89.10
49413;DHT22;35493;50.276;9.372;2023-02-01T06:24:21;5.40;89.20
49413;DHT22;35493;50.276;9.372;2023-02-01T06:26:52;5.40;89.30
49413;DHT22;35493;50.276;9.372;2023-02-01T06:29:19;5.40;89.30
49413;DHT22;35493;50.276;9.372;2023-02-01T06:31:45;5.40;89.30
49413;DHT22;35493;50.276;9.372;2023-02-01T06:34:12;5.40;89.20
49413;DHT22;35493;50.276;9.372;2023-02-01T06:36:39;5.40;89.30
49413;DHT22;35493;50.276;9.372;2023-02-01T06:39:06;5.40;89.20
49413;DHT22;35493;50.276;9.372;2023-02-01T06:41:33;5.40;89.30
49413;DHT22;35493;50.276;9.372;2023-02-01T06:44:01;5.40;89.30
49413;DHT22;35493;50.276;9.372;2023-02-01T06:46:28;5.40;89.30
49413;DHT22;35493;50.276;9.372;2023-02-01T06:48:55;5.40;89.40
49413;DHT22;35493;50.276;9.372;2023-02-01T06:51:23;5.40;89.20
49413;DHT22;35493;50.276;9.372;2023-02-01T06:53:50;5.40;89.20
49413;DHT22;35493;50.276;9.372;2023-02-01T06:56:18;5.40;89.20
49413;DHT22;35493;50.276;9.372;2023-02-01T06:58:45;5.50;89.10
49413;DHT22;35493;50.276;9.372;2023-02-01T07:01:14;5.40;89.10
49413;DHT22;35493;50.276;9.372;2023-02-01T07:03:42;5.40;88.90
49413;DHT22;35493;50.276;9.372;2023-02-01T07:06:09;5.50;88.70
49413;DHT22;35493;50.276;9.372;2023-02-01T07:08:37;5.40;88.60
49413;DHT22;35493;50.276;9.372;2023-02-01T07:11:07;5.40;88.70
49413;DHT22;35493;50.276;9.372;2023-02-01T07:13:35;5.40;88.60
49413;DHT22;35493;50.276;9.372;2023-02-01T07:16:03;5.40;88.60
49413;DHT22;35493;50.276;9.372;2023-02-01T07:18:32;5.30;88.60
49413;DHT22;35493;50.276;9.372;2023-02-01T07:20:59;5.40;88.50
49413;DHT22;35493;50.276;9.372;2023-02-01T07:23:27;5.30;88.50
49413;DHT22;35493;50.276;9.372;2023-02-01T07:25:55;5.30;88.60
49413;DHT22;35493;50.276;9.372;2023-02-01T07:28:22;5.30;88.60
49413;DHT22;35493;50.276;9.372;2023-02-01T07:30:49;5.30;88.50
49413;DHT22;35493;50.276;9.372;2023-02-01T07:33:18;5.30;88.50
49413;DHT22;35493;50.276;9.372;2023-02-01T07:35:47;5.30;88.50
49413;DHT22;35493;50.276;9.372;2023-02-01T07:38:15;5.30;88.50
49413;DHT22;35493;50.276;9.372;2023-02-01T07:40:42;5.40;88.50
49413;DHT22;35493;50.276;9.372;2023-02-01T07:43:09;5.30;88.40
49413;DHT22;35493;50.276;9.372;2023-02-01T07:45:38;5.40;88.40
49413;DHT22;35493;50.276;9.372;2023-02-01T07:48:05;5.40;88.30
49413;DHT22;35493;50.276;9.372;2023-02-01T07:50:32;5.40;88.30
49413;DHT22;35493;50.276;9.372;2023-02-01T07:53:01;5.40;88.30
49413;DHT22;35493;50.276;9.372;2023-02-01T07:55:28;5.40;88.30
49413;DHT22;35493;50.276;9.372;2023-02-01T07:57:57;5.40;88.30
49413;DHT22;35493;50.276;9.372;2023-02-01T08:00:25;5.40;88.20
49413;DHT22;35493;50.276;9.372;2023-02-01T08:03:09;5.40;88.10
49413;DHT22;35493;50.276;9.372;2023-02-01T08:05:37;5.40;88.10
49413;DHT22;35493;50.276;9.372;2023-02-01T08:08:06;5.40;88.00
49413;DHT22;35493;50.276;9.372;2023-02-01T08:10:32;5.40;88.00
49413;DHT22;35493;50.276;9.372;2023-02-01T08:13:01;5.50;87.80
49413;DHT22;35493;50.276;9.372;2023-02-01T08:15:29;5.50;87.80
49413;DHT22;35493;50.276;9.372;2023-02-01T08:17:56;5.50;87.80
49413;DHT22;35493;50.276;9.372;2023-02-01T08:20:24;5.50;87.70
49413;DHT22;35493;50.276;9.372;2023-02-01T08:22:52;5.50;87.70
49413;DHT22;35493;50.276;9.372;2023-02-01T08:25:20;5.50;87.70
49413;DHT22;35493;50.276;9.372;2023-02-01T08:27:47;5.50;87.60
49413;DHT22;35493;50.276;9.372;2023-02-01T08:30:15;5.50;87.50
49413;DHT22;35493;50.276;9.372;2023-02-01T08:32:42;5.50;87.40
49413;DHT22;35493;50.276;9.372;2023-02-01T08:35:09;5.50;87.40
49413;DHT22;35493;50.276;9.372;2023-02-01T08:37:36;5.50;87.30
49413;DHT22;35493;50.276;9.372;2023-02-01T08:40:04;5.60;87.30
49413;DHT22;35493;50.276;9.372;2023-02-01T08:42:32;5.60;87.10
49413;DHT22;35493;50.276;9.372;2023-02-01T08:45:17;5.50;86.90
49413;DHT22;35493;50.276;9.372;2023-02-01T08:47:45;5.50;87.00
49413;DHT22;35493;50.276;9.372;2023-02-01T08:50:13;5.60;86.80
49413;DHT22;35493;50.276;9.372;2023-02-01T08:52:40;5.60;86.90
49413;DHT22;35493;50.276;9.372;2023-02-01T08:55:08;5.60;86.70
49413;DHT22;35493;50.276;9.372;2023-02-01T08:57:36;5.60;86.60
49413;DHT22;35493;50.276;9.372;2023-02-01T09:00:09;5.60;86.40
49413;DHT22;35493;50.276;9.372;2023-02-01T09:02:37;5.60;86.20
49413;DHT22;35493;50.276;9.372;2023-02-01T09:05:05;5.60;86.20
49413;DHT22;35493;50.276;9.372;2023-02-01T09:07:33;5.60;86.10
49413;DHT22;35493;50.276;9.372;2023-02-01T09:10:00;5.60;85.90
49413;DHT22;35493;50.276;9.372;2023-02-01T09:12:27;5.60;86.00
49413;DHT22;35493;50.276;9.372;2023-02-01T09:14:56;5.60;85.80
49413;DHT22;35493;50.276;9.372;2023-02-01T09:17:25;5.50;85.60
49413;DHT22;35493;50.276;9.372;2023-02-01T09:19:52;5.60;85.60
49413;DHT22;35493;50.276;9.372;2023-02-01T09:22:19;5.60;85.00
49413;DHT22;35493;50.276;9.372;2023-02-01T09:24:46;5.60;84.90
49413;DHT22;35493;50.276;9.372;2023-02-01T09:27:13;5.60;84.90
49413;DHT22;35493;50.276;9.372;2023-02-01T09:29:40;5.60;84.70
49413;DHT22;35493;50.276;9.372;2023-02-01T09:32:08;5.60;85.00
49413;DHT22;35493;50.276;9.372;2023-02-01T09:34:35;5.60;84.90
49413;DHT22;35493;50.276;9.372;2023-02-01T09:37:02;5.60;84.80
49413;DHT22;35493;50.276;9.372;2023-02-01T09:39:29;5.60;84.70
49413;DHT22;35493;50.276;9.372;2023-02-01T09:42:03;5.60;84.80
49413;DHT22;35493;50.276;9.372;2023-02-01T09:44:42;5.60;84.80
49413;DHT22;35493;50.276;9.372;2023-02-01T09:47:14;5.60;85.00
49413;DHT22;35493;50.276;9.372;2023-02-01T09:49:48;5.60;85.10
49413;DHT22;35493;50.276;9.372;2023-02-01T09:52:22;5.60;85.00
49413;DHT22;35493;50.276;9.372;2023-02-01T09:54:53;5.60;84.90
49413;DHT22;35493;50.276;9.372;2023-02-01T09:57:28;5.60;84.90
49413;DHT22;35493;50.276;9.372;2023-02-01T10:00:03;5.60;84.90
49413;DHT22;35493;50.276;9.372;2023-02-01T10:02:40;5.60;84.90
49413;DHT22;35493;50.276;9.372;2023-02-01T10:05:13;5.60;84.80
49413;DHT22;35493;50.276;9.372;2023-02-01T10:07:45;5.60;84.90
49413;DHT22;35493;50.276;9.372;2023-02-01T10:10:17;5.60;84.80
49413;DHT22;35493;50.276;9.372;2023-02-01T10:16:17;5.70;84.90
49413;DHT22;35493;50.276;9.372;2023-02-01T10:19:01;5.70;84.90
49413;DHT22;35493;50.276;9.372;2023-02-01T10:21:38;5.70;84.60
49413;DHT22;35493;50.276;9.372;2023-02-01T10:24:34;5.70;84.60
49413;DHT22;35493;50.276;9.372;2023-02-01T10:27:07;5.70;84.50
49413;DHT22;35493;50.276;9.372;2023-02-01T10:29:38;5.70;84.50
49413;DHT22;35493;50.276;9.372;2023-02-01T10:32:12;5.70;84.40
49413;DHT22;35493;50.276;9.372;2023-02-01T10:34:41;5.70;84.30
49413;DHT22;35493;50.276;9.372;2023-02-01T10:37:17;5.70;84.30
49413;DHT22;35493;50.276;9.372;2023-02-01T10:39:47;5.70;84.10
49413;DHT22;35493;50.276;9.372;2023-02-01T10:42:15;5.80;84.00
49413;DHT22;35493;50.276;9.372;2023-02-01T10:44:43;5.80;83.70
49413;DHT22;35493;50.276;9.372;2023-02-01T10:47:13;5.70;83.40
49413;DHT22;35493;50.276;9.372;2023-02-01T10:49:45;5.70;83.60
49413;DHT22;35493;50.276;9.372;2023-02-01T10:52:16;5.80;83.60
49413;DHT22;35493;50.276;9.372;2023-02-01T10:54:44;5.70;83.70
49413;DHT22;35493;50.276;9.372;2023-02-01T10:57:21;5.70;83.60
49413;DHT22;35493;50.276;9.372;2023-02-01T10:59:49;5.80;83.40
49413;DHT22;35493;50.276;9.372;2023-02-01T11:02:20;5.80;83.10
49413;DHT22;35493;50.276;9.372;2023-02-01T11:04:49;5.80;83.00
49413;DHT22;35493;50.276;9.372;2023-02-01T11:07:19;5.80;83.40
49413;DHT22;35493;50.276;9.372;2023-02-01T11:09:51;5.80;83.40
49413;DHT22;35493;50.276;9.372;2023-02-01T11:12:38;5.80;83.30
49413;DHT22;35493;50.276;9.372;2023-02-01T11:15:14;5.80;83.10
49413;DHT22;35493;50.276;9.372;2023-02-01T11:17:45;5.80;83.10
49413;DHT22;35493;50.276;9.372;2023-02-01T11:20:16;5.80;83.30
49413;DHT22;35493;50.276;9.372;2023-02-01T11:22:48;5.80;83.20
49413;DHT22;35493;50.276;9.372;2023-02-01T11:25:19;5.80;83.20
49413;DHT22;35493;50.276;9.372;2023-02-01T11:27:47;5.80;83.20
49413;DHT22;35493;50.276;9.372;2023-02-01T11:30:17;5.90;83.10
49413;DHT22;35493;50.276;9.372;2023-02-01T11:32:46;5.80;82.90
49413;DHT22;35493;50.276;9.372;2023-02-01T11:35:18;5.80;82.90
49413;DHT22;35493;50.276;9.372;2023-02-01T11:37:52;5.90;82.80
49413;DHT22;35493;50.276;9.372;2023-02-01T11:40:26;5.80;82.80
49413;DHT22;35493;50.276;9.372;2023-02-01T11:42:55;5.80;82.80
49413;DHT22;35493;50.276;9.372;2023-02-01T11:45:26;5.80;82.80
49413;DHT22;35493;50.276;9.372;2023-02-01T11:47:55;5.90;82.70
49413;DHT22;35493;50.276;9.372;2023-02-01T11:50:30;5.90;82.40
49413;DHT22;35493;50.276;9.372;2023-02-01T11:56:08;5.90;82.20
49413;DHT22;35493;50.276;9.372;2023-02-01T11:59:16;5.90;82.20
49413;DHT22;35493;50.276;9.372;2023-02-01T12:01:57;5.90;82.00
49413;DHT22;35493;50.276;9.372;2023-02-01T12:07:57;5.90;81.70
49413;DHT22;35493;50.276;9.372;2023-02-01T12:10:36;5.90;81.70
49413;DHT22;35493;50.276;9.372;2023-02-01T12:13:16;5.90;81.70
49413;DHT22;35493;50.276;9.372;2023-02-01T12:15:56;5.90;81.70
49413;DHT22;35493;50.276;9.372;2023-02-01T12:18:47;5.90;82.00
49413;DHT22;35493;50.276;9.372;2023-02-01T12:21:27;5.90;82.00
49413;DHT22;35493;50.276;9.372;2023-02-01T12:24:15;6.00;82.10
49413;DHT22;35493;50.276;9.372;2023-02-01T12:26:53;5.90;82.10
49413;DHT22;35493;50.276;9.372;2023-02-01T12:29:48;5.90;82.10
49413;DHT22;35493;50.276;9.372;2023-02-01T12:32:28;5.90;82.10
49413;DHT22;35493;50.276;9.372;2023-02-01T12:35:13;5.90;81.90
49413;DHT22;35493;50.276;9.372;2023-02-01T12:37:51;5.90;81.80
49413;DHT22;35493;50.276;9.372;2023-02-01T12:40:32;6.00;81.80
49413;DHT22;35493;50.276;9.372;2023-02-01T12:43:09;6.00;81.80
49413;DHT22;35493;50.276;9.372;2023-02-01T12:45:41;5.90;81.60
49413;DHT22;35493;50.276;9.372;2023-02-01T12:48:22;6.00;81.40
49413;DHT22;35493;50.276;9.372;2023-02-01T12:50:53;6.00;81.40
49413;DHT22;35493;50.276;9.372;2023-02-01T12:53:25;6.00;81.50
49413;DHT22;35493;50.276;9.372;2023-02-01T12:55:56;6.10;81.60
49413;DHT22;35493;50.276;9.372;2023-02-01T12:58:30;6.00;81.50
49413;DHT22;35493;50.276;9.372;2023-02-01T13:01:01;6.10;81.60
49413;DHT22;35493;50.276;9.372;2023-02-01T13:03:36;6.10;81.50
49413;DHT22;35493;50.276;9.372;2023-02-01T13:06:09;6.10;81.40
49413;DHT22;35493;50.276;9.372;2023-02-01T13:08:43;6.00;81.40
49413;DHT22;35493;50.276;9.372;2023-02-01T13:11:19;6.10;81.40
49413;DHT22;35493;50.276;9.372;2023-02-01T13:13:56;6.10;81.20
49413;DHT22;35493;50.276;9.372;2023-02-01T13:16:30;6.10;81.00
49413;DHT22;35493;50.276;9.372;2023-02-01T13:19:03;6.10;81.20
49413;DHT22;35493;50.276;9.372;2023-02-01T13:21:34;6.10;81.10
49413;DHT22;35493;50.276;9.372;2023-02-01T13:24:04;6.20;80.90
49413;DHT22;35493;50.276;9.372;2023-02-01T13:26:32;6.20;81.10
49413;DHT22;35493;50.276;9.372;2023-02-01T13:29:02;6.20;81.00
49413;DHT22;35493;50.276;9.372;2023-02-01T13:37:36;6.20;80.70
49413;DHT22;35493;50.276;9.372;2023-02-01T13:40:33;6.20;80.70
49413;DHT22;35493;50.276;9.372;2023-02-01T13:43:11;6.20;80.80
49413;DHT22;35493;50.276;9.372;2023-02-01T13:45:44;6.30;80.90
49413;DHT22;35493;50.276;9.372;2023-02-01T13:48:19;6.20;80.70
49413;DHT22;35493;50.276;9.372;2023-02-01T13:50:51;6.20;80.60
49413;DHT22;35493;50.276;9.372;2023-02-01T13:53:29;6.20;80.60
49413;DHT22;35493;50.276;9.372;2023-02-01T13:55:59;6.30;80.60
49413;DHT22;35493;50.276;9.372;2023-02-01T13:58:33;6.20;80.70
49413;DHT22;35493;50.276;9.372;2023-02-01T14:01:32;6.20;80.60
49413;DHT22;35493;50.276;9.372;2023-02-01T14:04:03;6.30;80.50
49413;DHT22;35493;50.276;9.372;2023-02-01T14:06:52;6.30;80.30
49413;DHT22;35493;50.276;9.372;2023-02-01T14:09:32;6.30;80.30
49413;DHT22;35493;50.276;9.372;2023-02-01T14:12:47;6.30;80.20
49413;DHT22;35493;50.276;9.372;2023-02-01T14:15:21;6.30;80.30
49413;DHT22;35493;50.276;9.372;2023-02-01T14:17:49;6.40;80.10
49413;DHT22;35493;50.276;9.372;2023-02-01T14:20:43;6.40;80.00
49413;DHT22;35493;50.276;9.372;2023-02-01T14:23:29;6.40;80.10
49413;DHT22;35493;50.276;9.372;2023-02-01T14:26:19;6.40;80.00
49413;DHT22;35493;50.276;9.372;2023-02-01T14:28:51;6.40;80.00
49413;DHT22;35493;50.276;9.372;2023-02-01T14:31:40;6.40;80.00
49413;DHT22;35493;50.276;9.372;2023-02-01T14:34:17;6.40;80.00
49413;DHT22;35493;50.276;9.372;2023-02-01T14:36:49;6.40;80.00
49413;DHT22;35493;50.276;9.372;2023-02-01T14:39:30;6.40;79.90
49413;DHT22;35493;50.276;9.372;2023-02-01T14:42:00;6.40;79.90
49413;DHT22;35493;50.276;9.372;2023-02-01T14:44:36;6.40;79.80
49413;DHT22;35493;50.276;9.372;2023-02-01T14:47:29;6.50;79.90
49413;DHT22;35493;50.276;9.372;2023-02-01T14:50:31;6.40;80.00
49413;DHT22;35493;50.276;9.372;2023-02-01T14:53:18;6.40;80.00
49413;DHT22;35493;50.276;9.372;2023-02-01T14:55:49;6.40;80.00
49413;DHT22;35493;50.276;9.372;2023-02-01T14:58:27;6.40;80.00
49413;DHT22;35493;50.276;9.372;2023-02-01T15:00:59;6.40;79.80
49413;DHT22;35493;50.276;9.372;2023-02-01T15:03:39;6.40;80.00
49413;DHT22;35493;50.276;9.372;2023-02-01T15:06:24;6.40;79.70
49413;DHT22;35493;50.276;9.372;2023-02-01T15:08:54;6.40;79.50
49413;DHT22;35493;50.276;9.372;2023-02-01T15:11:22;6.50;79.40
49413;DHT22;35493;50.276;9.372;2023-02-01T15:13:51;6.50;79.40
49413;DHT22;35493;50.276;9.372;2023-02-01T15:16:21;6.40;79.40
49413;DHT22;35493;50.276;9.372;2023-02-01T15:18:50;6.40;79.20
49413;DHT22;35493;50.276;9.372;2023-02-01T15:21:19;6.40;79.20
49413;DHT22;35493;50.276;9.372;2023-02-01T15:23:46;6.40;79.30
49413;DHT22;35493;50.276;9.372;2023-02-01T15:26:28;6.40;78.90
49413;DHT22;35493;50.276;9.372;2023-02-01T15:28:56;6.40;79.10
49413;DHT22;35493;50.276;9.372;2023-02-01T15:31:35;6.50;78.80
49413;DHT22;35493;50.276;9.372;2023-02-01T15:34:03;6.40;78.70
49413;DHT22;35493;50.276;9.372;2023-02-01T15:36:30;6.40;78.90
49413;DHT22;35493;50.276;9.372;2023-02-01T15:39:27;6.50;78.80
49413;DHT22;35493;50.276;9.372;2023-02-01T15:41:57;6.40;78.80
49413;DHT22;35493;50.276;9.372;2023-02-01T15:44:28;6.40;79.20
49413;DHT22;35493;50.276;9.372;2023-02-01T15:46:56;6.40;79.50
49413;DHT22;35493;50.276;9.372;2023-02-01T15:49:28;6.30;79.70
49413;DHT22;35493;50.276;9.372;2023-02-01T15:51:57;6.40;79.90
49413;DHT22;35493;50.276;9.372;2023-02-01T15:54:28;6.40;80.10
49413;DHT22;35493;50.276;9.372;2023-02-01T15:57:01;6.30;80.10
49413;DHT22;35493;50.276;9.372;2023-02-01T15:59:32;6.40;80.00
49413;DHT22;35493;50.276;9.372;2023-02-01T16:02:01;6.30;80.20
49413;DHT22;35493;50.276;9.372;2023-02-01T16:04:29;6.30;80.10
49413;DHT22;35493;50.276;9.372;2023-02-01T16:07:00;6.40;79.80
49413;DHT22;35493;50.276;9.372;2023-02-01T16:09:35;6.30;79.90
49413;DHT22;35493;50.276;9.372;2023-02-01T16:12:23;6.30;79.70
49413;DHT22;35493;50.276;9.372;2023-02-01T16:14:50;6.40;79.70
49413;DHT22;35493;50.276;9.372;2023-02-01T16:17:17;6.40;79.70
49413;DHT22;35493;50.276;9.372;2023-02-01T16:19:45;6.40;79.60
49413;DHT22;35493;50.276;9.372;2023-02-01T16:22:18;6.30;79.70
49413;DHT22;35493;50.276;9.372;2023-02-01T16:24:45;6.30;80.10
49413;DHT22;35493;50.276;9.372;2023-02-01T16:27:12;6.40;80.00
49413;DHT22;35493;50.276;9.372;2023-02-01T16:29:39;6.30;80.20
49413;DHT22;35493;50.276;9.372;2023-02-01T16:32:08;6.40;80.30
49413;DHT22;35493;50.276;9.372;2023-02-01T16:34:38;6.30;80.40